Time;durP1;ratioP1;P1;durP2;ratioP2;P2;SDS_P1;SDS_P2;PMS_P1;PMS_P2;Temp;Humidity;BMP_temperature;BMP_pressure;BME280_temperature;BME280_humidity;BME280_pressure;Samples;Min_cycle;Max_cycle;Signal;HPM_P1;HPM_P2
2023/06/29 00:01:48;;;;;;;7.90;6.90;;;;;;;19.00;81.36;100935.81;4994383;28;20238;-83
2023/06/29 00:04:18;;;;;;;7.30;6.63;;;;;;;18.99;81.37;100927.88;4994492;28;20209;-83
2023/06/29 00:06:44;;;;;;;7.27;6.77;;;;;;;18.98;81.55;100931.59;4994201;28;20257;-83
2023/06/29 00:09:11;;;;;;;7.40;6.83;;;;;;;18.95;81.24;100927.31;4994196;28;20221;-84
2023/06/29 00:11:38;;;;;;;7.97;6.50;;;;;;;18.96;81.03;100922.78;5005930;28;20738;-84
2023/06/29 00:14:05;;;;;;;7.73;7.03;;;;;;;18.93;81.17;100926.63;5013945;28;20209;-83
2023/06/29 00:16:32;;;;;;;8.20;7.53;;;;;;;18.94;80.93;100919.38;5001701;28;20947;-84
2023/06/29 00:19:00;;;;;;;7.40;6.90;;;;;;;18.95;80.66;100921.94;4994513;28;20218;-82
2023/06/29 00:21:27;;;;;;;7.77;7.17;;;;;;;18.96;80.73;100930.88;4994172;28;20230;-83
2023/06/29 00:23:54;;;;;;;7.33;6.73;;;;;;;18.93;80.95;100929.31;4994677;28;20218;-83
2023/06/29 00:26:21;;;;;;;7.77;7.00;;;;;;;18.92;81.25;100930.31;4994494;28;20236;-84
2023/06/29 00:28:48;;;;;;;7.50;6.90;;;;;;;18.92;81.25;100927.59;4994560;28;20206;-83
2023/06/29 00:31:16;;;;;;;7.13;6.60;;;;;;;18.92;81.21;100926.75;5013706;28;20243;-84
2023/06/29 00:33:42;;;;;;;6.83;6.33;;;;;;;18.92;81.41;100924.91;5008959;28;20206;-84
2023/06/29 00:36:08;;;;;;;7.50;6.90;;;;;;;18.90;81.70;100926.03;5005377;28;20212;-84
2023/06/29 00:38:35;;;;;;;7.97;6.97;;;;;;;18.92;81.62;100933.00;5014457;28;20214;-84
2023/06/29 00:41:01;;;;;;;7.77;6.90;;;;;;;18.90;81.87;100920.66;5009740;28;20198;-85
2023/06/29 00:43:28;;;;;;;7.73;7.03;;;;;;;18.90;82.22;100915.25;4995663;28;20603;-86
2023/06/29 00:45:55;;;;;;;7.90;7.20;;;;;;;18.92;82.39;100913.25;5005353;28;20230;-85
2023/06/29 00:48:23;;;;;;;7.50;6.80;;;;;;;18.91;82.63;100914.25;5002913;28;20272;-85
2023/06/29 00:50:50;;;;;;;7.77;7.10;;;;;;;18.90;82.68;100912.56;5004619;28;20212;-84
2023/06/29 00:53:16;;;;;;;7.77;7.00;;;;;;;18.87;82.90;100913.69;5002876;28;20206;-84
2023/06/29 00:55:43;;;;;;;7.90;7.10;;;;;;;18.88;83.26;100912.69;4994910;28;20218;-84
2023/06/29 00:58:09;;;;;;;7.03;6.53;;;;;;;18.86;83.49;100905.72;4995835;28;20704;-83
2023/06/29 01:00:36;;;;;;;7.00;6.40;;;;;;;18.85;83.71;100912.13;4994959;28;20205;-84
2023/06/29 01:03:02;;;;;;;7.80;7.10;;;;;;;18.82;83.83;100904.31;4995362;28;20832;-84
2023/06/29 01:05:34;;;;;;;8.17;7.30;;;;;;;18.79;83.80;100901.91;4994528;28;20231;-84
2023/06/29 01:08:08;;;;;;;7.17;6.53;;;;;;;18.78;83.83;100908.31;5003712;28;20210;-84
2023/06/29 01:10:36;;;;;;;7.40;6.80;;;;;;;18.76;83.91;100908.44;5003355;28;20243;-85
2023/06/29 01:13:05;;;;;;;7.10;6.60;;;;;;;18.75;83.99;100900.50;5014849;28;20236;-83
2023/06/29 01:15:32;;;;;;;7.53;6.93;;;;;;;18.72;84.04;100905.19;5018686;28;20676;-84
2023/06/29 01:18:00;;;;;;;6.90;6.23;;;;;;;18.69;84.18;100894.69;5018114;28;20588;-83
2023/06/29 01:20:27;;;;;;;6.07;5.60;;;;;;;18.68;84.45;100898.38;5017196;28;20216;-83
2023/06/29 01:22:59;;;;;;;6.77;6.27;;;;;;;18.64;84.59;100890.69;5017662;28;20232;-83
2023/06/29 01:25:28;;;;;;;8.13;6.77;;;;;;;18.63;84.85;100889.03;5017169;28;20232;-83
2023/06/29 01:27:54;;;;;;;7.17;6.57;;;;;;;18.64;84.86;100882.59;5017456;28;20592;-84
2023/06/29 01:30:23;;;;;;;7.47;6.97;;;;;;;18.62;84.80;100885.47;5018015;28;20220;-84
2023/06/29 01:32:49;;;;;;;6.70;6.20;;;;;;;18.59;84.78;100883.06;5017268;28;20237;-84
2023/06/29 01:35:16;;;;;;;6.60;6.10;;;;;;;18.58;85.02;100886.72;5013869;28;20197;-83
2023/06/29 01:37:48;;;;;;;7.77;6.37;;;;;;;18.58;85.20;100883.16;4997667;28;20217;-85
2023/06/29 01:40:18;;;;;;;6.90;6.30;;;;;;;18.57;84.89;100885.00;4997474;28;20193;-84
2023/06/29 01:42:48;;;;;;;7.40;6.77;;;;;;;18.53;84.52;100880.88;4997793;28;20248;-84
2023/06/29 01:45:16;;;;;;;6.50;6.00;;;;;;;18.52;84.79;100891.81;5014378;28;20198;-83
2023/06/29 01:47:43;;;;;;;6.60;6.10;;;;;;;18.49;84.99;100890.25;5018632;28;20259;-83
2023/06/29 01:50:10;;;;;;;6.40;5.90;;;;;;;18.47;84.83;100883.28;5018738;28;20204;-84
2023/06/29 01:52:37;;;;;;;6.33;5.73;;;;;;;18.44;84.89;100884.44;5012294;28;20966;-83
2023/06/29 01:55:05;;;;;;;7.07;6.37;;;;;;;18.43;85.06;100871.09;4999271;28;20275;-84
2023/06/29 01:57:31;;;;;;;7.40;6.77;;;;;;;18.44;85.34;100878.22;5008855;28;20240;-84
2023/06/29 01:59:59;;;;;;;7.27;6.73;;;;;;;18.40;85.77;100869.53;5006977;28;20226;-84
2023/06/29 02:02:26;;;;;;;7.00;6.37;;;;;;;18.40;86.01;100872.25;5008485;28;20220;-83
2023/06/29 02:04:52;;;;;;;7.43;6.73;;;;;;;18.40;86.41;100861.44;5008773;28;20202;-84
2023/06/29 02:07:19;;;;;;;8.43;7.27;;;;;;;18.38;86.72;100858.03;4997184;28;20226;-83
2023/06/29 02:09:45;;;;;;;8.23;7.53;;;;;;;18.39;86.80;100859.75;5013160;28;20276;-83
2023/06/29 02:12:13;;;;;;;8.03;7.30;;;;;;;18.38;86.92;100866.97;5017090;28;20235;-84
2023/06/29 02:14:39;;;;;;;7.90;7.23;;;;;;;18.38;87.14;100855.34;5017407;28;20216;-83
2023/06/29 02:17:07;;;;;;;8.90;7.97;;;;;;;18.35;87.27;100861.00;5010325;28;20218;-84
2023/06/29 02:19:34;;;;;;;8.30;7.70;;;;;;;18.35;87.31;100863.72;5002160;28;20663;-85
2023/06/29 02:22:00;;;;;;;8.30;7.70;;;;;;;18.30;87.77;100850.66;5006802;28;20261;-84
2023/06/29 02:24:27;;;;;;;8.73;7.93;;;;;;;18.27;88.02;100850.09;4995963;28;20229;-84
2023/06/29 02:26:56;;;;;;;8.80;8.10;;;;;;;18.25;88.30;100852.94;5001892;28;20228;-83
2023/06/29 02:29:23;;;;;;;8.93;8.03;;;;;;;18.24;88.83;100855.78;5004684;28;20218;-84
2023/06/29 02:31:49;;;;;;;9.00;8.10;;;;;;;18.23;89.07;100854.91;5005808;28;20252;-84
2023/06/29 02:34:17;;;;;;;9.07;8.17;;;;;;;18.21;89.30;100856.91;5017269;28;20211;-83
2023/06/29 02:36:44;;;;;;;13.37;8.70;;;;;;;18.19;89.69;100858.03;5016237;28;20678;-84
2023/06/29 02:39:10;;;;;;;8.80;8.00;;;;;;;18.16;89.78;100852.91;5016776;28;20577;-83
2023/06/29 02:41:37;;;;;;;8.40;7.70;;;;;;;18.14;89.55;100857.59;5011649;28;20282;-84
2023/06/29 02:44:03;;;;;;;8.33;7.50;;;;;;;18.13;89.37;100863.97;4996153;28;20816;-84
2023/06/29 02:46:30;;;;;;;8.87;8.07;;;;;;;18.10;89.24;100857.03;4996887;28;20235;-83
2023/06/29 02:48:57;;;;;;;8.43;7.80;;;;;;;18.09;89.13;100857.19;4996349;28;20212;-83
2023/06/29 02:51:24;;;;;;;8.37;7.67;;;;;;;18.07;89.09;100851.94;4995627;28;20229;-83
2023/06/29 02:53:51;;;;;;;7.90;7.20;;;;;;;18.04;88.86;100855.75;4996256;28;20220;-84
2023/06/29 02:56:18;;;;;;;8.00;7.27;;;;;;;18.03;88.95;100854.06;5018148;28;20283;-87
2023/06/29 02:58:44;;;;;;;8.10;7.40;;;;;;;18.03;88.91;100847.81;5017333;28;20574;-84
2023/06/29 03:01:11;;;;;;;8.53;7.77;;;;;;;18.02;89.05;100852.34;5017224;28;20311;-83
2023/06/29 03:03:38;;;;;;;9.07;8.17;;;;;;;18.01;89.01;100853.34;5002485;28;20296;-82
2023/06/29 03:06:04;;;;;;;9.60;8.73;;;;;;;18.00;89.33;100848.94;4997308;28;20217;-83
2023/06/29 03:08:32;;;;;;;8.37;7.57;;;;;;;17.98;89.50;100845.53;4996409;28;20220;-83
2023/06/29 03:10:59;;;;;;;7.83;7.17;;;;;;;17.97;89.68;100845.66;5015039;28;20405;-83
2023/06/29 03:13:25;;;;;;;7.80;7.10;;;;;;;17.95;89.81;100845.81;5015396;28;20208;-83
2023/06/29 03:15:52;;;;;;;7.97;7.23;;;;;;;17.94;89.86;100840.53;5008051;28;20233;-83
2023/06/29 03:18:18;;;;;;;7.33;6.73;;;;;;;17.94;89.79;100844.09;5016511;28;20212;-84
2023/06/29 03:20:45;;;;;;;7.23;6.57;;;;;;;17.93;89.75;100845.09;5014715;28;20207;-83
2023/06/29 03:23:11;;;;;;;6.97;6.37;;;;;;;17.95;89.68;100850.34;5011008;28;20234;-83
2023/06/29 03:25:39;;;;;;;7.50;6.80;;;;;;;17.94;89.75;100838.69;5010140;28;20298;-84
2023/06/29 03:28:06;;;;;;;7.23;6.63;;;;;;;17.93;89.70;100847.78;5010448;28;20231;-84
2023/06/29 03:30:33;;;;;;;7.93;7.23;;;;;;;17.93;89.91;100841.53;5002289;28;20207;-83
2023/06/29 03:33:01;;;;;;;8.20;7.40;;;;;;;17.94;89.77;100840.53;5005236;28;20241;-84
2023/06/29 03:35:29;;;;;;;7.60;6.90;;;;;;;17.96;89.81;100847.50;5015332;28;20216;-84
2023/06/29 03:37:56;;;;;;;7.90;6.97;;;;;;;17.97;89.92;100843.81;4998707;28;20206;-84
2023/06/29 03:40:23;;;;;;;7.63;6.93;;;;;;;18.01;90.24;100842.56;5011522;28;20242;-86
2023/06/29 03:42:51;;;;;;;7.47;6.77;;;;;;;18.03;90.00;100837.03;4999493;28;20233;-84
2023/06/29 03:45:17;;;;;;;8.23;7.53;;;;;;;18.07;89.97;100834.91;5009999;28;20205;-83
2023/06/29 03:47:44;;;;;;;8.57;7.87;;;;;;;18.08;89.95;100837.47;5006121;28;20275;-83
2023/06/29 03:50:11;;;;;;;8.27;7.33;;;;;;;18.10;90.38;100832.75;5012135;28;20211;-83
2023/06/29 03:52:37;;;;;;;10.07;8.17;;;;;;;18.11;90.57;100839.00;5015438;28;20296;-83
2023/06/29 03:55:05;;;;;;;12.60;8.00;;;;;;;18.12;91.17;100824.53;5008795;28;20204;-83
2023/06/29 03:57:32;;;;;;;8.63;7.83;;;;;;;18.13;91.71;100831.63;4997842;28;20222;-84
2023/06/29 04:00:00;;;;;;;8.63;7.90;;;;;;;18.13;92.08;100823.53;5008777;28;20213;-84
2023/06/29 04:02:26;;;;;;;9.47;8.57;;;;;;;18.14;92.58;100827.94;5017173;28;20228;-82
2023/06/29 04:04:53;;;;;;;10.20;8.67;;;;;;;18.14;92.98;100830.63;5002477;28;20666;-84
2023/06/29 04:07:19;;;;;;;8.13;7.43;;;;;;;18.13;92.99;100826.25;5011956;28;20234;-85
2023/06/29 04:09:46;;;;;;;8.90;8.00;;;;;;;18.11;92.98;100826.38;5004815;28;20236;-84
2023/06/29 04:12:12;;;;;;;8.20;7.50;;;;;;;18.10;93.00;100824.69;5016839;28;20232;-83
2023/06/29 04:14:39;;;;;;;7.70;7.10;;;;;;;18.09;93.13;100822.16;5017164;28;20563;-84
2023/06/29 04:17:07;;;;;;;8.27;7.47;;;;;;;18.08;93.31;100813.22;5014908;28;20278;-85
2023/06/29 04:19:33;;;;;;;7.83;7.13;;;;;;;18.08;93.15;100824.00;5011550;28;20217;-84
2023/06/29 04:22:00;;;;;;;8.27;7.47;;;;;;;18.07;93.20;100832.22;5004072;28;20230;-84
2023/06/29 04:24:27;;;;;;;9.13;7.73;;;;;;;18.09;93.13;100828.38;5013821;28;20217;-86
2023/06/29 04:26:53;;;;;;;8.13;7.43;;;;;;;18.11;92.90;100817.44;5012407;28;20234;-85
2023/06/29 04:29:20;;;;;;;8.27;7.57;;;;;;;18.12;92.91;100821.84;5003889;28;20205;-84
2023/06/29 04:31:46;;;;;;;8.77;8.03;;;;;;;18.13;92.47;100820.84;5010203;28;20237;-84
2023/06/29 04:34:17;;;;;;;9.70;8.80;;;;;;;18.15;92.63;100830.50;5013486;28;20292;-82
2023/06/29 04:36:46;;;;;;;8.70;8.10;;;;;;;18.17;92.56;100823.13;5012097;28;20198;-82
2023/06/29 04:39:13;;;;;;;9.23;8.43;;;;;;;18.21;92.58;100815.63;5008013;28;20658;-83
2023/06/29 04:41:40;;;;;;;9.00;8.20;;;;;;;18.22;92.44;100820.00;5013837;28;20235;-82
2023/06/29 04:44:09;;;;;;;8.57;7.97;;;;;;;18.24;92.26;100818.88;5016126;28;20213;-84
2023/06/29 04:46:37;;;;;;;8.97;8.17;;;;;;;18.26;91.94;100813.34;5014366;28;20936;-85
2023/06/29 04:49:06;;;;;;;9.13;8.40;;;;;;;18.29;91.91;100821.13;5013345;28;20662;-83
2023/06/29 04:51:35;;;;;;;9.33;8.47;;;;;;;18.33;91.73;100820.72;5008037;28;20317;-83
2023/06/29 04:54:01;;;;;;;9.60;8.70;;;;;;;18.34;91.64;100816.16;5012233;28;20213;-83
2023/06/29 04:56:28;;;;;;;9.67;8.97;;;;;;;18.38;91.62;100820.28;5011665;28;20211;-83
2023/06/29 04:58:55;;;;;;;9.87;8.87;;;;;;;18.42;91.53;100816.31;5020437;28;20211;-83
2023/06/29 05:01:22;;;;;;;9.83;9.03;;;;;;;18.45;91.70;100815.19;5014931;28;20526;-84
2023/06/29 05:03:48;;;;;;;9.37;8.47;;;;;;;18.50;91.89;100816.44;5008519;28;20681;-82
2023/06/29 05:06:15;;;;;;;11.07;9.07;;;;;;;18.54;92.08;100809.75;4999473;28;20234;-83
2023/06/29 05:08:43;;;;;;;9.13;8.30;;;;;;;18.56;92.14;100809.63;4998456;28;20222;-83
2023/06/29 05:11:10;;;;;;;9.60;8.70;;;;;;;18.60;91.95;100811.94;4998936;28;20596;-84
2023/06/29 05:13:36;;;;;;;9.00;8.10;;;;;;;18.62;92.02;100812.63;4997586;28;20218;-82
2023/06/29 05:16:03;;;;;;;9.73;8.83;;;;;;;18.64;92.13;100807.91;5005681;28;20219;-82
2023/06/29 05:18:29;;;;;;;8.90;8.03;;;;;;;18.67;92.31;100810.34;5015332;28;20680;-82
2023/06/29 05:20:57;;;;;;;9.60;8.87;;;;;;;18.70;92.05;100809.19;5015518;28;20267;-82
2023/06/29 05:23:24;;;;;;;9.70;8.73;;;;;;;18.74;91.93;100807.91;5015442;28;20217;-83
2023/06/29 05:25:51;;;;;;;9.87;9.03;;;;;;;18.76;91.55;100797.81;5006995;28;20210;-82
2023/06/29 05:28:18;;;;;;;9.70;8.83;;;;;;;18.80;91.13;100799.25;4995272;28;20234;-82
2023/06/29 05:30:44;;;;;;;12.57;9.33;;;;;;;18.83;90.59;100798.94;5008441;28;20217;-83
2023/06/29 05:33:11;;;;;;;9.73;8.90;;;;;;;18.87;90.53;100803.03;5007303;28;20236;-83
2023/06/29 05:35:38;;;;;;;9.70;8.70;;;;;;;18.93;90.18;100793.50;5017274;28;20459;-83
2023/06/29 05:38:04;;;;;;;9.37;8.47;;;;;;;18.99;89.58;100793.75;4999585;28;20245;-82
2023/06/29 05:40:32;;;;;;;12.07;8.63;;;;;;;19.02;89.14;100781.81;5011518;28;20268;-83
2023/06/29 05:43:00;;;;;;;10.83;9.73;;;;;;;19.09;88.94;100782.94;5008420;28;20224;-83
2023/06/29 05:45:26;;;;;;;11.17;10.17;;;;;;;19.15;88.62;100786.91;5009006;28;20217;-83
2023/06/29 05:47:54;;;;;;;10.60;9.60;;;;;;;19.20;88.32;100788.13;5004138;28;20228;-84
2023/06/29 05:50:21;;;;;;;10.13;9.17;;;;;;;19.28;88.36;100784.69;5003905;28;20694;-83
2023/06/29 05:52:47;;;;;;;9.50;8.70;;;;;;;19.33;88.05;100790.50;5006421;28;20236;-83
2023/06/29 05:55:14;;;;;;;9.50;8.70;;;;;;;19.40;87.67;100786.19;5003225;28;20215;-83
2023/06/29 05:57:41;;;;;;;9.93;8.97;;;;;;;19.45;87.70;100788.44;4999052;28;20202;-84
2023/06/29 06:00:12;;;;;;;9.10;8.30;;;;;;;19.51;87.58;100786.03;5004472;28;20722;-84
2023/06/29 06:02:39;;;;;;;8.50;7.70;;;;;;;19.57;87.48;100789.97;5005280;28;20289;-83
2023/06/29 06:05:07;;;;;;;9.10;8.40;;;;;;;19.63;87.05;100792.91;5002956;28;20772;-83
2023/06/29 06:07:34;;;;;;;10.00;9.00;;;;;;;19.68;86.58;100789.75;5005646;28;20234;-83
2023/06/29 06:10:01;;;;;;;11.23;8.60;;;;;;;19.74;86.39;100787.28;5007984;28;20221;-83
2023/06/29 06:12:27;;;;;;;9.60;8.70;;;;;;;19.80;86.39;100783.13;5003146;28;20236;-83
2023/06/29 06:14:54;;;;;;;9.00;8.17;;;;;;;19.89;86.24;100790.28;5009494;28;20655;-83
2023/06/29 06:17:22;;;;;;;10.77;8.60;;;;;;;19.99;84.71;100790.25;4999742;28;20200;-83
2023/06/29 06:19:48;;;;;;;9.73;8.73;;;;;;;20.01;83.51;100778.28;5008843;28;20679;-83
2023/06/29 06:22:15;;;;;;;9.83;8.87;;;;;;;20.06;83.83;100777.81;5004720;28;20226;-83
2023/06/29 06:24:41;;;;;;;11.77;8.67;;;;;;;20.15;84.01;100781.44;5001473;28;20254;-83
2023/06/29 06:27:08;;;;;;;9.63;7.80;;;;;;;20.23;82.70;100773.41;5007149;28;20209;-83
2023/06/29 06:29:34;;;;;;;10.00;6.93;;;;;;;20.29;81.16;100779.00;5006991;28;20202;-83
2023/06/29 06:32:01;;;;;;;10.82;7.68;;;;;;;20.35;79.70;100772.13;5004624;28;20247;-83
2023/06/29 06:34:30;;;;;;;9.17;6.87;;;;;;;20.41;78.03;100772.41;5002481;28;20214;-83
2023/06/29 06:36:58;;;;;;;10.13;6.90;;;;;;;20.47;76.96;100768.19;5005357;28;20253;-83
2023/06/29 06:39:24;;;;;;;7.63;6.20;;;;;;;20.54;75.58;100773.81;4998406;28;20218;-83
2023/06/29 06:41:51;;;;;;;8.23;6.47;;;;;;;20.60;74.99;100765.91;5002644;28;20323;-83
2023/06/29 06:44:17;;;;;;;8.77;6.40;;;;;;;20.65;74.30;100769.00;5007563;28;20211;-83
2023/06/29 06:46:44;;;;;;;9.43;6.07;;;;;;;20.72;73.47;100770.06;5002418;28;20206;-83
2023/06/29 06:49:10;;;;;;;10.60;6.10;;;;;;;20.79;72.89;100768.41;5005722;28;20223;-83
2023/06/29 06:51:38;;;;;;;6.68;5.53;;;;;;;20.87;72.35;100770.31;5001911;28;20227;-83
2023/06/29 06:54:05;;;;;;;6.75;5.43;;;;;;;20.93;72.12;100766.13;5007471;28;20217;-83
2023/06/29 06:56:31;;;;;;;6.95;5.70;;;;;;;21.01;72.31;100771.56;4996377;28;20207;-83
2023/06/29 06:58:58;;;;;;;7.85;5.03;;;;;;;21.12;71.96;100766.75;5000524;28;20202;-83
2023/06/29 07:01:24;;;;;;;13.70;5.70;;;;;;;21.23;71.42;100770.19;5000733;28;20222;-83
2023/06/29 07:03:51;;;;;;;5.90;4.57;;;;;;;21.32;70.75;100763.78;5003648;28;20369;-83
2023/06/29 07:06:18;;;;;;;6.90;4.90;;;;;;;21.40;70.04;100769.22;4998211;28;20788;-83
2023/06/29 07:08:45;;;;;;;6.63;4.75;;;;;;;21.46;69.39;100771.28;5004107;28;20218;-83
2023/06/29 07:11:12;;;;;;;9.00;5.20;;;;;;;21.54;68.48;100760.47;5003132;28;20832;-83
2023/06/29 07:13:38;;;;;;;10.93;4.70;;;;;;;21.61;68.71;100775.06;5000050;28;20214;-83
2023/06/29 07:16:06;;;;;;;8.27;4.38;;;;;;;21.70;68.50;100762.38;4998166;28;20206;-84
2023/06/29 07:18:35;;;;;;;8.98;5.57;;;;;;;21.79;68.08;100764.94;5001066;28;20273;-83
2023/06/29 07:21:02;;;;;;;5.78;5.18;;;;;;;21.87;67.34;100764.09;5001752;28;20235;-84
2023/06/29 07:23:28;;;;;;;10.05;5.05;;;;;;;21.94;66.98;100757.00;5001788;28;20202;-83
2023/06/29 07:25:56;;;;;;;8.35;4.55;;;;;;;22.01;66.14;100754.50;5005583;28;20222;-83
2023/06/29 07:28:22;;;;;;;8.50;4.93;;;;;;;22.03;66.15;100750.59;5000439;28;20234;-83
2023/06/29 07:30:51;;;;;;;7.95;4.68;;;;;;;22.10;65.84;100748.91;5004531;28;20206;-83
2023/06/29 07:33:17;;;;;;;6.18;5.35;;;;;;;22.16;65.78;100748.22;5005695;28;20198;-83
2023/06/29 07:35:44;;;;;;;6.47;4.35;;;;;;;22.23;65.73;100742.09;5001989;28;20220;-83
2023/06/29 07:38:10;;;;;;;6.78;4.82;;;;;;;22.33;65.94;100745.50;5000159;28;20203;-83
2023/06/29 07:40:37;;;;;;;8.10;4.93;;;;;;;22.43;65.58;100736.16;5011002;28;20214;-83
2023/06/29 07:43:04;;;;;;;8.02;5.50;;;;;;;22.54;65.02;100743.09;5005644;28;20234;-83
2023/06/29 07:45:31;;;;;;;6.63;5.60;;;;;;;22.59;64.12;100740.69;5006270;28;20207;-83
2023/06/29 07:47:57;;;;;;;5.20;4.70;;;;;;;22.65;63.54;100736.47;5001781;28;20230;-83
2023/06/29 07:50:24;;;;;;;7.40;5.50;;;;;;;22.69;63.19;100735.09;4997740;28;20203;-83
2023/06/29 07:52:50;;;;;;;6.63;5.45;;;;;;;22.77;63.16;100730.50;5005102;28;20235;-84
2023/06/29 07:55:17;;;;;;;9.95;5.13;;;;;;;22.87;62.79;100735.75;4999005;28;20239;-84
2023/06/29 07:57:43;;;;;;;9.07;5.68;;;;;;;22.95;62.38;100734.88;5007136;28;20205;-84
2023/06/29 08:00:12;;;;;;;8.98;5.10;;;;;;;23.04;62.64;100734.69;4996798;28;20219;-83
2023/06/29 08:02:39;;;;;;;7.28;5.20;;;;;;;23.12;62.73;100736.50;5009349;28;20226;-83
2023/06/29 08:05:07;;;;;;;5.55;4.50;;;;;;;23.22;62.32;100725.44;5005392;28;20222;-83
2023/06/29 08:07:34;;;;;;;5.65;4.50;;;;;;;23.30;62.24;100731.66;4997208;28;20200;-83
2023/06/29 08:10:01;;;;;;;7.15;5.22;;;;;;;23.35;61.51;100731.13;5004263;28;20222;-83
2023/06/29 08:12:27;;;;;;;8.15;5.28;;;;;;;23.43;61.22;100731.09;5005229;28;20223;-83
2023/06/29 08:14:54;;;;;;;8.60;5.05;;;;;;;23.51;61.47;100723.75;5006821;28;20217;-83
2023/06/29 08:17:22;;;;;;;5.93;4.53;;;;;;;23.61;61.22;100730.88;5005426;28;20203;-82
2023/06/29 08:19:48;;;;;;;8.65;4.93;;;;;;;23.67;60.09;100721.97;5001699;28;20214;-82
2023/06/29 08:22:14;;;;;;;6.63;4.63;;;;;;;23.75;60.19;100722.78;5006836;28;20238;-83
2023/06/29 08:24:41;;;;;;;6.60;5.32;;;;;;;23.83;59.83;100719.13;5001713;28;20210;-83
2023/06/29 08:27:07;;;;;;;5.47;4.40;;;;;;;23.91;59.53;100715.50;4999794;28;20220;-83
2023/06/29 08:29:34;;;;;;;5.95;4.93;;;;;;;23.98;59.50;100717.34;4995663;28;20222;-83
2023/06/29 08:32:00;;;;;;;8.73;5.20;;;;;;;24.07;58.84;100713.50;5001785;28;20250;-83
2023/06/29 08:34:28;;;;;;;7.30;4.53;;;;;;;24.19;58.48;100719.34;5009923;28;20214;-83
2023/06/29 08:36:54;;;;;;;6.80;4.47;;;;;;;24.30;58.98;100720.81;4999224;28;20214;-83
2023/06/29 08:39:21;;;;;;;8.52;4.30;;;;;;;24.43;58.28;100710.13;5001503;28;20202;-83
2023/06/29 08:41:47;;;;;;;5.82;4.50;;;;;;;24.50;57.31;100711.09;4999746;28;20234;-82
2023/06/29 08:44:14;;;;;;;6.68;3.97;;;;;;;24.55;57.34;100712.22;5005993;28;20775;-83
2023/06/29 08:46:44;;;;;;;6.05;4.53;;;;;;;24.57;57.35;100712.03;4999458;28;20195;-83
2023/06/29 08:49:12;;;;;;;5.25;4.35;;;;;;;24.61;57.53;100707.91;5001183;28;20317;-83
2023/06/29 08:51:43;;;;;;;7.25;4.80;;;;;;;24.64;57.44;100707.53;4998588;28;20231;-83
2023/06/29 08:54:12;;;;;;;5.00;4.10;;;;;;;24.70;57.46;100706.81;5002455;28;20686;-83
2023/06/29 08:56:39;;;;;;;6.20;4.55;;;;;;;24.78;56.78;100714.88;5004460;28;20210;-83
2023/06/29 08:59:06;;;;;;;8.25;4.28;;;;;;;24.82;56.12;100712.63;5003280;28;20210;-84
2023/06/29 09:01:34;;;;;;;6.35;4.18;;;;;;;24.90;56.20;100717.97;5001424;28;20230;-83
2023/06/29 09:04:00;;;;;;;6.55;4.50;;;;;;;24.97;56.71;100715.34;4997045;28;20218;-83
2023/06/29 09:06:27;;;;;;;7.53;4.40;;;;;;;25.04;57.09;100719.88;4993696;28;20298;-83
2023/06/29 09:08:55;;;;;;;5.90;4.50;;;;;;;25.13;56.75;100718.72;5002045;28;20238;-83
2023/06/29 09:11:22;;;;;;;8.07;4.60;;;;;;;25.17;55.91;100719.19;4998741;28;20724;-83
2023/06/29 09:13:49;;;;;;;5.57;4.15;;;;;;;25.21;55.91;100713.19;5003714;28;20222;-83
2023/06/29 09:16:17;;;;;;;5.10;4.15;;;;;;;25.26;55.50;100716.16;5002737;28;20208;-83
2023/06/29 09:18:48;;;;;;;7.10;4.57;;;;;;;25.33;55.54;100713.53;5001140;28;20283;-83
2023/06/29 09:21:17;;;;;;;5.90;4.55;;;;;;;25.39;54.99;100712.78;5004240;28;20226;-83
2023/06/29 09:23:44;;;;;;;5.50;4.43;;;;;;;25.40;54.92;100708.16;4995299;28;20227;-82
2023/06/29 09:26:11;;;;;;;5.25;4.10;;;;;;;25.40;54.91;100709.00;4997215;28;20801;-85
2023/06/29 09:28:45;;;;;;;7.03;4.50;;;;;;;25.37;54.52;100709.38;5001288;28;20254;-83
2023/06/29 09:31:12;;;;;;;6.57;5.15;;;;;;;25.37;54.70;100706.66;4999778;28;20230;-82
2023/06/29 09:33:38;;;;;;;6.15;4.40;;;;;;;25.38;55.28;100705.63;4998079;28;20207;-83
2023/06/29 09:36:06;;;;;;;8.07;4.60;;;;;;;25.43;55.12;100707.78;4999335;28;20242;-82
2023/06/29 09:38:33;;;;;;;5.88;4.00;;;;;;;25.46;55.04;100704.66;5006799;28;20677;-83
2023/06/29 09:41:00;;;;;;;4.68;3.85;;;;;;;25.48;55.52;100708.88;5006483;28;20211;-82
2023/06/29 09:43:29;;;;;;;5.28;4.40;;;;;;;25.51;54.95;100708.50;5006141;28;20719;-85
2023/06/29 09:46:06;;;;;;;6.28;3.90;;;;;;;25.52;54.77;100699.28;4998198;28;20207;-86
2023/06/29 09:48:32;;;;;;;6.05;3.95;;;;;;;25.56;54.81;100706.03;5005883;28;20761;-85
2023/06/29 09:50:58;;;;;;;4.97;3.55;;;;;;;25.63;54.70;100703.41;5000840;28;20218;-85
2023/06/29 09:53:29;;;;;;;4.78;4.05;;;;;;;25.67;54.48;100701.13;5007756;28;20202;-85
2023/06/29 09:55:58;;;;;;;5.30;4.20;;;;;;;25.69;54.02;100704.50;4999695;28;20245;-89
2023/06/29 09:58:24;;;;;;;5.40;3.85;;;;;;;25.68;54.10;100703.66;5004385;28;20230;-85
2023/06/29 10:00:53;;;;;;;6.53;3.92;;;;;;;25.69;54.10;100707.25;5002866;28;20938;-85
2023/06/29 10:03:19;;;;;;;4.97;4.00;;;;;;;25.68;53.46;100702.81;5003217;28;20211;-86
2023/06/29 10:05:47;;;;;;;4.03;3.45;;;;;;;25.67;53.88;100704.69;5002073;28;20218;-86
2023/06/29 10:08:17;;;;;;;9.02;4.10;;;;;;;25.65;53.43;100701.31;5002070;28;20222;-85
2023/06/29 10:10:45;;;;;;;4.35;3.78;;;;;;;25.65;53.73;100705.94;4997319;28;20586;-86
2023/06/29 10:13:15;;;;;;;3.97;3.50;;;;;;;25.65;54.02;100701.31;5001080;28;21059;-86
2023/06/29 10:15:41;;;;;;;5.47;3.83;;;;;;;25.68;54.06;100700.09;5001443;28;20200;-86
2023/06/29 10:18:15;;;;;;;5.28;4.25;;;;;;;25.70;53.53;100695.28;5005612;28;20551;-86
2023/06/29 10:20:44;;;;;;;4.60;3.60;;;;;;;25.72;53.33;100688.59;5004542;28;20279;-86
2023/06/29 10:23:14;;;;;;;6.63;4.32;;;;;;;25.73;53.43;100686.72;4999834;28;20238;-84
2023/06/29 10:25:45;;;;;;;6.80;3.95;;;;;;;25.75;54.00;100695.56;5001906;28;20214;-85
2023/06/29 10:28:14;;;;;;;5.80;3.92;;;;;;;25.78;54.02;100692.44;5000384;28;20206;-87
2023/06/29 10:30:44;;;;;;;6.00;4.55;;;;;;;25.80;54.04;100682.16;5000520;28;20218;-86
2023/06/29 10:33:12;;;;;;;6.00;4.72;;;;;;;25.79;53.55;100680.50;5002853;28;20258;-86
2023/06/29 10:35:40;;;;;;;5.88;4.43;;;;;;;25.77;53.73;100683.41;4999965;28;20218;-86
2023/06/29 10:38:11;;;;;;;5.00;4.50;;;;;;;25.78;53.33;100673.34;5006648;28;20206;-87
2023/06/29 10:40:46;;;;;;;5.78;4.68;;;;;;;25.77;53.02;100677.13;5008742;28;20218;-87
2023/06/29 10:43:13;;;;;;;5.47;4.47;;;;;;;25.74;52.87;100677.50;5007138;28;20712;-89
2023/06/29 10:45:40;;;;;;;5.53;4.50;;;;;;;25.69;52.09;100671.78;5001031;28;20209;-86
2023/06/29 10:48:08;;;;;;;6.60;4.32;;;;;;;25.64;52.56;100671.50;5001531;28;20204;-85
2023/06/29 10:50:42;;;;;;;5.45;4.95;;;;;;;25.62;53.24;100670.84;5007429;28;20239;-86
2023/06/29 10:53:11;;;;;;;5.82;4.68;;;;;;;25.60;53.55;100671.91;5007707;28;20227;-86
2023/06/29 10:55:56;;;;;;;6.32;4.93;;;;;;;25.59;52.96;100670.19;5001647;28;20217;-86
2023/06/29 10:58:24;;;;;;;9.13;5.25;;;;;;;25.59;53.42;100664.75;5002642;28;20215;-85
2023/06/29 11:00:52;;;;;;;6.05;4.47;;;;;;;25.61;53.55;100670.00;5005903;28;20214;-86
2023/06/29 11:03:20;;;;;;;5.10;4.43;;;;;;;25.67;53.69;100668.41;4997479;28;20223;-87
2023/06/29 11:05:52;;;;;;;10.48;4.78;;;;;;;25.72;53.46;100669.50;4999503;28;20203;-86
2023/06/29 11:08:23;;;;;;;5.40;4.53;;;;;;;25.72;52.92;100664.06;4995406;28;20511;-85
2023/06/29 11:10:53;;;;;;;6.63;5.03;;;;;;;25.69;52.83;100658.13;5005522;28;20231;-82
2023/06/29 11:13:23;;;;;;;5.45;4.80;;;;;;;25.69;53.33;100659.00;5004404;28;20232;-85
2023/06/29 11:15:54;;;;;;;9.05;5.40;;;;;;;25.72;53.51;100663.22;5001960;28;20206;-83
2023/06/29 11:18:23;;;;;;;9.90;5.60;;;;;;;25.73;53.52;100659.44;5005517;28;20203;-83
2023/06/29 11:20:51;;;;;;;7.45;5.03;;;;;;;25.72;53.57;100655.03;5007270;28;20217;-83
2023/06/29 11:23:18;;;;;;;9.50;6.78;;;;;;;25.68;53.99;100657.28;5000298;28;20241;-83
2023/06/29 11:25:44;;;;;;;10.95;6.18;;;;;;;25.70;53.97;100655.22;5004960;28;20194;-83